createdAt,value
2023-04-18T00:02:08.174Z,19.33
2023-04-18T00:04:38.659Z,21.73
2023-04-18T00:07:06.842Z,17.17
2023-04-18T00:09:34.768Z,22.27
2023-04-18T00:12:05.091Z,16.77
2023-04-18T00:14:34.504Z,15.43
2023-04-18T00:17:03.192Z,14.70
2023-04-18T00:19:31.270Z,17.60
2023-04-18T00:22:00.025Z,17.03
2023-04-18T00:24:28.174Z,13.87
2023-04-18T00:26:57.292Z,15.70
2023-04-18T00:29:27.337Z,18.67
2023-04-18T00:31:55.708Z,16.77
2023-04-18T00:34:24.755Z,17.93
2023-04-18T00:36:53.077Z,12.17
2023-04-18T00:39:20.994Z,17.70
2023-04-18T00:41:49.224Z,17.50
2023-04-18T00:44:18.047Z,17.10
2023-04-18T00:46:47.454Z,20.73
2023-04-18T00:49:15.926Z,17.33
2023-04-18T00:51:44.441Z,19.87
2023-04-18T00:54:13.691Z,19.10
2023-04-18T00:56:42.124Z,18.27
2023-04-18T00:59:11.495Z,17.63
2023-04-18T01:01:41.856Z,17.43
2023-04-18T01:04:11.796Z,14.03
2023-04-18T01:06:40.849Z,18.33
2023-04-18T01:09:09.764Z,17.67
2023-04-18T01:11:38.040Z,14.23
2023-04-18T01:14:08.388Z,14.87
2023-04-18T01:16:37.014Z,14.90
2023-04-18T01:19:06.400Z,15.20
2023-04-18T01:21:37.617Z,12.57
2023-04-18T01:24:12.037Z,15.00
2023-04-18T01:26:41.281Z,15.77
2023-04-18T01:29:09.233Z,11.17
2023-04-18T01:31:37.908Z,13.70
2023-04-18T01:34:07.078Z,15.03
2023-04-18T01:36:35.547Z,13.67
2023-04-18T01:39:04.123Z,15.50
2023-04-18T01:41:33.715Z,15.43
2023-04-18T01:44:02.124Z,15.37
2023-04-18T01:46:30.573Z,13.80
2023-04-18T01:48:59.226Z,13.90
2023-04-18T01:51:28.492Z,12.97
2023-04-18T01:53:56.800Z,16.80
2023-04-18T01:56:25.153Z,14.00
2023-04-18T01:58:54.511Z,14.67
2023-04-18T02:01:22.895Z,13.40
2023-04-18T02:03:51.150Z,16.20
2023-04-18T02:06:19.417Z,17.90
2023-04-18T02:08:47.977Z,17.10
2023-04-18T02:11:16.156Z,16.73
2023-04-18T02:13:44.799Z,13.30
2023-04-18T02:16:15.036Z,16.23
2023-04-18T02:18:45.207Z,17.03
2023-04-18T02:21:13.550Z,17.47
2023-04-18T02:23:41.760Z,18.20
2023-04-18T02:26:10.304Z,19.27
2023-04-18T02:28:39.302Z,15.07
2023-04-18T02:31:14.548Z,14.73
2023-04-18T02:33:45.260Z,14.77
2023-04-18T02:36:13.936Z,15.63
2023-04-18T02:38:42.111Z,17.07
2023-04-18T02:41:15.495Z,18.53
2023-04-18T02:43:45.015Z,19.60
2023-04-18T02:46:13.411Z,23.57
2023-04-18T02:48:41.653Z,19.17
2023-04-18T02:51:11.295Z,25.40
2023-04-18T02:53:39.470Z,22.53
2023-04-18T02:56:08.625Z,16.20
2023-04-18T02:58:37.523Z,20.13
2023-04-18T03:01:05.885Z,19.03
2023-04-18T03:03:33.917Z,22.07
2023-04-18T03:06:01.929Z,21.93
2023-04-18T03:08:31.466Z,18.43
2023-04-18T03:10:59.690Z,10.67
2023-04-18T03:13:27.909Z,14.93
2023-04-18T03:15:57.272Z,20.60
2023-04-18T03:18:25.453Z,18.03
2023-04-18T03:20:53.760Z,21.50
2023-04-18T03:23:21.990Z,19.20
2023-04-18T03:25:51.677Z,23.77
2023-04-18T03:28:21.320Z,26.37
2023-04-18T03:30:50.772Z,27.43
2023-04-18T03:33:18.702Z,24.60
2023-04-18T03:35:47.792Z,28.13
2023-04-18T03:38:16.316Z,26.43
2023-04-18T03:40:44.692Z,26.33
2023-04-18T03:43:14.013Z,25.50
2023-04-18T03:45:42.232Z,26.17
2023-04-18T03:48:10.213Z,24.80
2023-04-18T03:50:40.695Z,23.70
2023-04-18T03:53:08.574Z,20.90
2023-04-18T03:55:39.287Z,22.13
2023-04-18T03:58:07.548Z,13.73
2023-04-18T04:00:37.419Z,19.73
2023-04-18T04:03:05.535Z,23.57
2023-04-18T04:05:33.891Z,24.57
2023-04-18T04:08:01.841Z,23.17
2023-04-18T04:10:29.860Z,22.27
2023-04-18T04:12:57.773Z,23.87
2023-04-18T04:15:26.045Z,24.87
2023-04-18T04:17:55.533Z,17.67
2023-04-18T04:20:24.150Z,19.87
2023-04-18T04:22:52.589Z,17.53
2023-04-18T04:25:23.898Z,19.23
2023-04-18T04:27:53.748Z,19.63
2023-04-18T04:30:22.836Z,20.10
2023-04-18T04:32:51.252Z,26.43
2023-04-18T04:35:21.087Z,22.57
2023-04-18T04:37:51.242Z,19.03
2023-04-18T04:40:19.512Z,17.40
2023-04-18T04:42:49.256Z,20.03
2023-04-18T04:45:17.522Z,21.80
2023-04-18T04:47:45.643Z,22.70
2023-04-18T04:50:15.806Z,19.97
2023-04-18T04:52:45.173Z,21.93
2023-04-18T04:55:13.327Z,20.00
2023-04-18T04:57:41.865Z,21.20
2023-04-18T05:00:11.324Z,20.23
2023-04-18T05:02:40.542Z,20.60
2023-04-18T05:05:09.503Z,19.43
2023-04-18T05:07:37.586Z,20.07
2023-04-18T05:10:07.617Z,17.07
2023-04-18T05:12:35.657Z,20.80
2023-04-18T05:15:03.722Z,20.63
2023-04-18T05:17:32.311Z,18.43
2023-04-18T05:20:00.493Z,17.67
2023-04-18T05:22:28.657Z,19.63
2023-04-18T05:24:58.092Z,23.10
2023-04-18T05:27:27.901Z,20.57
2023-04-18T05:29:56.466Z,17.50
2023-04-18T05:32:25.077Z,22.93
2023-04-18T05:34:53.146Z,19.93
2023-04-18T05:37:22.475Z,18.67
2023-04-18T05:39:50.638Z,19.27
2023-04-18T05:42:18.589Z,18.13
2023-04-18T05:44:48.325Z,17.63
2023-04-18T05:47:16.628Z,17.03
2023-04-18T05:49:44.916Z,16.47
2023-04-18T05:52:12.800Z,20.03
2023-04-18T05:54:41.522Z,19.77
2023-04-18T05:57:09.740Z,17.23
2023-04-18T05:59:37.862Z,18.03
2023-04-18T06:02:13.391Z,16.93
2023-04-18T06:04:42.491Z,22.33
2023-04-18T06:07:11.403Z,19.13
2023-04-18T06:09:39.461Z,22.90
2023-04-18T06:12:07.659Z,19.20
2023-04-18T06:14:35.600Z,18.17
2023-04-18T06:17:03.720Z,18.33
2023-04-18T06:19:33.239Z,22.00
2023-04-18T06:22:01.516Z,19.17
2023-04-18T06:24:31.214Z,13.03
2023-04-18T06:26:59.378Z,15.23
2023-04-18T06:29:30.507Z,11.53
2023-04-18T06:31:58.690Z,14.43
2023-04-18T06:34:26.927Z,12.27
2023-04-18T06:36:57.663Z,12.57
2023-04-18T06:39:25.853Z,14.80
2023-04-18T06:41:53.810Z,13.37
2023-04-18T06:44:21.717Z,11.77
2023-04-18T06:46:50.396Z,12.03
2023-04-18T06:49:18.554Z,11.87
2023-04-18T06:51:46.582Z,11.00
2023-04-18T06:54:16.223Z,14.23
2023-04-18T06:56:44.198Z,11.57
2023-04-18T06:59:12.576Z,12.93
2023-04-18T07:01:42.765Z,11.63
2023-04-18T07:04:11.012Z,15.07
2023-04-18T07:06:39.805Z,10.50
2023-04-18T07:09:07.820Z,13.63
2023-04-18T07:11:37.196Z,13.37
2023-04-18T07:14:05.272Z,14.93
2023-04-18T07:16:33.609Z,12.77
2023-04-18T07:19:01.767Z,9.33
2023-04-18T07:21:29.819Z,8.63
2023-04-18T07:23:57.840Z,8.17
2023-04-18T07:26:27.706Z,8.33
2023-04-18T07:28:57.193Z,7.80
2023-04-18T07:31:26.092Z,6.80
2023-04-18T07:33:54.210Z,7.33
2023-04-18T07:36:22.836Z,5.37
2023-04-18T07:38:52.141Z,5.23
2023-04-18T07:41:21.565Z,5.97
2023-04-18T07:43:49.601Z,7.47
2023-04-18T07:46:19.665Z,6.80
2023-04-18T07:48:47.833Z,5.83
2023-04-18T07:51:15.934Z,4.37
2023-04-18T07:53:44.898Z,8.33
2023-04-18T07:56:14.601Z,4.90
2023-04-18T07:58:43.701Z,4.60
2023-04-18T08:01:14.225Z,4.80
2023-04-18T08:03:43.760Z,5.17
2023-04-18T08:06:12.018Z,5.67
2023-04-18T08:08:40.058Z,6.67
2023-04-18T08:11:08.101Z,6.00
2023-04-18T08:13:36.511Z,8.17
2023-04-18T08:16:04.569Z,7.00
2023-04-18T08:18:32.422Z,6.43
2023-04-18T08:21:01.724Z,5.33
2023-04-18T08:23:30.286Z,6.13
2023-04-18T08:25:58.256Z,7.73
2023-04-18T08:28:26.245Z,5.53
2023-04-18T08:30:55.473Z,5.43
2023-04-18T08:33:24.748Z,5.63
2023-04-18T08:35:52.977Z,7.50
2023-04-18T08:38:22.863Z,5.80
2023-04-18T08:40:50.725Z,5.50
2023-04-18T08:43:18.768Z,7.30
2023-04-18T08:45:47.386Z,6.60
2023-04-18T08:48:16.922Z,6.23
2023-04-18T08:50:46.157Z,6.07
2023-04-18T08:53:14.592Z,6.23
2023-04-18T08:55:44.644Z,5.50
2023-04-18T08:58:12.918Z,4.70
2023-04-18T09:00:41.813Z,4.93
2023-04-18T09:03:15.629Z,6.07
2023-04-18T09:05:43.721Z,6.50
2023-04-18T09:08:24.165Z,5.67
2023-04-18T09:10:53.530Z,5.90
2023-04-18T09:13:39.974Z,4.93
2023-04-18T09:16:08.447Z,5.73
2023-04-18T09:18:41.249Z,3.43
2023-04-18T09:21:20.001Z,4.80
2023-04-18T09:23:50.629Z,5.07
2023-04-18T09:26:36.562Z,5.23
2023-04-18T09:29:05.244Z,4.73
2023-04-18T09:31:33.952Z,5.23
2023-04-18T09:34:03.143Z,6.17
2023-04-18T09:36:31.422Z,6.30
2023-04-18T09:38:59.347Z,3.80
2023-04-18T09:41:30.600Z,4.77
2023-04-18T09:44:14.598Z,3.83
2023-04-18T09:46:46.596Z,2.83
2023-04-18T09:49:16.892Z,2.60
2023-04-18T09:51:46.380Z,3.87
2023-04-18T09:54:16.809Z,2.97
2023-04-18T09:56:50.532Z,2.67
2023-04-18T09:59:34.973Z,3.23
2023-04-18T10:02:04.569Z,5.73
2023-04-18T10:04:34.016Z,3.80
2023-04-18T10:07:03.612Z,3.47
2023-04-18T10:09:34.598Z,3.00
2023-04-18T10:12:04.353Z,2.93
2023-04-18T10:14:35.348Z,3.00
2023-04-18T10:17:03.478Z,2.87
2023-04-18T10:19:31.940Z,3.10
2023-04-18T10:22:03.239Z,4.10
2023-04-18T10:24:48.408Z,2.40
2023-04-18T10:27:18.450Z,2.20
2023-04-18T10:29:50.932Z,1.30
2023-04-18T10:32:20.420Z,1.53
2023-04-18T10:34:48.900Z,2.57
2023-04-18T10:37:19.104Z,1.73
2023-04-18T10:39:57.318Z,1.90
2023-04-18T10:43:00.645Z,1.40
2023-04-18T10:45:31.775Z,1.93
2023-04-18T10:48:25.605Z,2.40
2023-04-18T10:51:23.710Z,1.50
2023-04-18T10:53:55.506Z,2.80
2023-04-18T10:56:26.164Z,2.13
2023-04-18T10:58:56.243Z,2.70
2023-04-18T11:01:31.719Z,2.03
2023-04-18T11:04:01.601Z,1.40
2023-04-18T11:06:31.365Z,1.33
2023-04-18T11:09:12.130Z,1.30
2023-04-18T11:11:40.050Z,1.40
2023-04-18T11:14:10.166Z,1.50
2023-04-18T11:16:38.453Z,2.17
2023-04-18T11:19:24.604Z,1.60
2023-04-18T11:21:53.530Z,1.50
2023-04-18T11:24:24.958Z,2.23
2023-04-18T11:26:56.229Z,1.30
2023-04-18T11:29:25.791Z,1.63
2023-04-18T11:31:58.541Z,1.07
2023-04-18T11:34:30.869Z,2.00
2023-04-18T11:36:59.686Z,1.60
2023-04-18T11:39:28.944Z,1.83
2023-04-18T11:41:58.240Z,2.40
2023-04-18T11:44:28.312Z,1.97
2023-04-18T11:46:56.841Z,3.47
2023-04-18T11:49:28.980Z,1.67
2023-04-18T11:51:57.565Z,1.90
2023-04-18T11:54:41.422Z,1.60
2023-04-18T11:57:21.551Z,1.83
2023-04-18T11:59:52.918Z,1.50
2023-04-18T12:02:22.758Z,2.33
2023-04-18T12:04:56.086Z,1.53
2023-04-18T12:07:40.223Z,2.63
2023-04-18T12:10:10.219Z,2.37
2023-04-18T12:12:38.326Z,1.87
2023-04-18T12:15:10.610Z,1.50
2023-04-18T12:17:39.452Z,1.60
2023-04-18T12:20:10.115Z,1.97
2023-04-18T12:22:43.635Z,1.77
2023-04-18T12:25:27.838Z,1.50
2023-04-18T12:27:59.456Z,1.20
2023-04-18T12:30:31.323Z,1.40
2023-04-18T12:33:02.137Z,1.57
2023-04-18T12:35:32.086Z,1.30
2023-04-18T12:38:02.149Z,1.10
2023-04-18T12:40:30.787Z,1.77
2023-04-18T12:43:02.134Z,0.77
2023-04-18T12:45:32.905Z,1.50
2023-04-18T12:48:00.939Z,0.97
2023-04-18T12:50:29.001Z,1.30
2023-04-18T12:53:03.419Z,3.13
2023-04-18T12:55:32.037Z,1.07
2023-04-18T12:58:00.296Z,1.63
2023-04-18T13:00:30.379Z,1.53
2023-04-18T13:03:01.008Z,2.53
2023-04-18T13:05:33.694Z,1.63
2023-04-18T13:08:15.280Z,1.50
2023-04-18T13:10:44.907Z,1.20
2023-04-18T13:13:13.282Z,1.57
2023-04-18T13:15:41.511Z,1.20
2023-04-18T13:18:11.291Z,1.20
2023-04-18T13:20:39.441Z,2.70
2023-04-18T13:23:07.965Z,1.47
2023-04-18T13:25:36.130Z,1.63
2023-04-18T13:28:04.435Z,1.23
2023-04-18T13:30:32.409Z,2.80
2023-04-18T13:33:00.502Z,1.53
2023-04-18T13:35:30.135Z,1.37
2023-04-18T13:37:58.252Z,1.00
2023-04-18T13:40:26.570Z,1.37
2023-04-18T13:42:54.683Z,1.07
2023-04-18T13:45:23.105Z,0.90
2023-04-18T13:47:51.617Z,1.77
2023-04-18T13:50:20.449Z,1.90
2023-04-18T13:52:52.089Z,0.70
2023-04-18T13:55:20.728Z,0.93
2023-04-18T13:57:48.986Z,4.57
2023-04-18T14:00:19.330Z,1.23
2023-04-18T14:02:47.706Z,1.37
2023-04-18T14:05:16.042Z,0.70
2023-04-18T14:07:44.280Z,0.60
2023-04-18T14:10:14.502Z,0.67
2023-04-18T14:12:43.348Z,1.57
2023-04-18T14:15:12.505Z,2.47
2023-04-18T14:17:41.512Z,0.70
2023-04-18T14:20:11.116Z,0.70
2023-04-18T14:22:39.037Z,1.37
2023-04-18T14:25:08.586Z,0.60
2023-04-18T14:27:38.694Z,0.60
2023-04-18T14:30:08.834Z,1.50
2023-04-18T14:32:37.347Z,0.90
2023-04-18T14:35:07.197Z,0.70
2023-04-18T14:37:35.475Z,0.50
2023-04-18T14:40:05.544Z,1.63
2023-04-18T14:42:33.673Z,0.60
2023-04-18T14:45:05.272Z,3.70
2023-04-18T14:47:35.099Z,0.70
2023-04-18T14:50:03.048Z,0.50
2023-04-18T14:52:31.175Z,0.50
2023-04-18T14:54:59.392Z,0.50
2023-04-18T14:57:30.457Z,0.60
2023-04-18T14:59:58.419Z,0.60
2023-04-18T15:02:28.352Z,0.73
2023-04-18T15:04:56.782Z,1.47
2023-04-18T15:07:25.206Z,3.27
2023-04-18T15:09:53.231Z,1.23
2023-04-18T15:12:21.390Z,0.63
2023-04-18T15:14:49.298Z,0.70
2023-04-18T15:17:17.415Z,0.30
2023-04-18T15:19:46.821Z,0.80
2023-04-18T15:22:15.085Z,0.50
2023-04-18T15:24:43.371Z,0.63
2023-04-18T15:27:11.945Z,0.87
2023-04-18T15:29:40.251Z,0.70
2023-04-18T15:32:09.297Z,2.80
2023-04-18T15:34:37.309Z,0.40
2023-04-18T15:37:07.508Z,0.63
2023-04-18T15:39:35.716Z,2.40
2023-04-18T15:42:03.701Z,0.70
2023-04-18T15:44:33.031Z,0.47
2023-04-18T15:47:01.976Z,0.87
2023-04-18T15:49:29.910Z,0.43
2023-04-18T15:51:58.229Z,0.50
2023-04-18T15:54:27.681Z,0.40
2023-04-18T15:56:56.228Z,0.47
2023-04-18T15:59:24.401Z,0.33
2023-04-18T16:01:52.495Z,1.13
2023-04-18T16:04:24.190Z,0.50
2023-04-18T16:06:52.438Z,0.40
2023-04-18T16:09:20.662Z,0.50
2023-04-18T16:11:50.095Z,0.47
2023-04-18T16:14:19.119Z,0.40
2023-04-18T16:16:47.061Z,0.40
2023-04-18T16:19:15.280Z,0.60
2023-04-18T16:21:43.252Z,0.63
2023-04-18T16:24:11.486Z,0.80
2023-04-18T16:26:39.553Z,0.40
2023-04-18T16:29:08.934Z,0.50
2023-04-18T16:31:36.971Z,2.77
2023-04-18T16:34:05.394Z,1.40
2023-04-18T16:36:35.518Z,0.43
2023-04-18T16:39:04.777Z,0.70
2023-04-18T16:41:32.773Z,0.50
2023-04-18T16:44:01.279Z,0.70
2023-04-18T16:46:32.317Z,1.40
2023-04-18T16:49:03.317Z,0.67
2023-04-18T16:51:32.770Z,0.80
2023-04-18T16:54:02.849Z,0.57
2023-04-18T16:56:31.499Z,0.43
2023-04-18T16:58:59.522Z,0.70
2023-04-18T17:01:27.560Z,0.77
2023-04-18T17:03:59.376Z,1.00
2023-04-18T17:06:27.758Z,0.97
2023-04-18T17:08:55.766Z,0.80
2023-04-18T17:11:25.019Z,0.77
2023-04-18T17:13:53.456Z,1.10
2023-04-18T17:16:21.750Z,0.83
2023-04-18T17:18:53.536Z,0.60
2023-04-18T17:21:24.094Z,3.13
2023-04-18T17:23:52.303Z,1.97
2023-04-18T17:26:21.181Z,3.47
2023-04-18T17:28:49.198Z,2.87
2023-04-18T17:31:17.341Z,0.90
2023-04-18T17:33:46.156Z,1.10
2023-04-18T17:36:14.715Z,1.17
2023-04-18T17:38:48.989Z,1.17
2023-04-18T17:41:19.745Z,1.77
2023-04-18T17:43:51.019Z,0.70
2023-04-18T17:46:19.878Z,1.17
2023-04-18T17:48:47.834Z,1.50
2023-04-18T17:51:16.516Z,0.70
2023-04-18T17:53:45.961Z,1.63
2023-04-18T17:56:15.016Z,1.20
2023-04-18T17:58:43.435Z,1.47
2023-04-18T18:01:15.693Z,1.40
2023-04-18T18:03:46.574Z,1.07
2023-04-18T18:06:17.002Z,1.67
2023-04-18T18:08:46.555Z,0.90
2023-04-18T18:11:14.454Z,1.90
2023-04-18T18:13:42.628Z,1.40
2023-04-18T18:16:10.733Z,2.40
2023-04-18T18:18:38.992Z,3.67
2023-04-18T18:21:06.987Z,3.30
2023-04-18T18:23:35.305Z,4.30
2023-04-18T18:26:06.710Z,2.60
2023-04-18T18:28:34.766Z,3.70
2023-04-18T18:31:02.895Z,5.50
2023-04-18T18:33:30.932Z,3.37
2023-04-18T18:35:58.948Z,7.47
2023-04-18T18:38:27.268Z,5.00
2023-04-18T18:40:55.502Z,3.80
2023-04-18T18:43:26.384Z,5.20
2023-04-18T18:45:54.644Z,3.83
2023-04-18T18:48:22.734Z,4.60
2023-04-18T18:50:51.616Z,3.90
2023-04-18T18:53:19.815Z,7.30
2023-04-18T18:55:47.824Z,11.30
2023-04-18T18:58:15.819Z,6.87
2023-04-18T19:00:45.448Z,6.37
2023-04-18T19:03:13.690Z,5.93
2023-04-18T19:05:41.836Z,5.07
2023-04-18T19:08:09.797Z,4.47
2023-04-18T19:10:37.875Z,8.57
2023-04-18T19:13:06.332Z,10.10
2023-04-18T19:15:34.217Z,8.97
2023-04-18T19:18:03.557Z,5.70
2023-04-18T19:20:31.689Z,6.13
2023-04-18T19:22:59.844Z,5.60
2023-04-18T19:25:27.856Z,6.53
2023-04-18T19:27:55.976Z,4.33
2023-04-18T19:30:25.108Z,5.20
2023-04-18T19:32:53.001Z,5.33
2023-04-18T19:35:23.550Z,0.90
2023-04-18T19:37:51.917Z,0.63
2023-04-18T19:40:20.195Z,0.90
2023-04-18T19:42:49.705Z,1.00
2023-04-18T19:45:17.738Z,1.67
2023-04-18T19:47:47.636Z,0.60
2023-04-18T19:50:16.160Z,0.50
2023-04-18T19:52:45.808Z,0.63
2023-04-18T19:55:13.673Z,0.90
2023-04-18T19:57:42.257Z,0.70
2023-04-18T20:00:13.792Z,0.70
2023-04-18T20:02:42.620Z,0.77
2023-04-18T20:05:11.412Z,0.70
2023-04-18T20:07:39.714Z,0.80
2023-04-18T20:10:10.834Z,0.67
2023-04-18T20:12:39.152Z,1.07
2023-04-18T20:15:09.395Z,1.27
2023-04-18T20:17:37.749Z,0.93
2023-04-18T20:20:09.139Z,0.80
2023-04-18T20:22:38.759Z,0.73
2023-04-18T20:25:09.193Z,1.83
2023-04-18T20:27:39.080Z,1.60
2023-04-18T20:30:08.641Z,1.40
2023-04-18T20:32:37.027Z,1.33
2023-04-18T20:35:05.719Z,1.83
2023-04-18T20:37:36.956Z,1.47
2023-04-18T20:40:08.553Z,1.17
2023-04-18T20:42:37.291Z,1.47
2023-04-18T20:45:11.275Z,1.47
2023-04-18T20:47:41.261Z,2.47
2023-04-18T20:50:10.734Z,2.13
2023-04-18T20:52:38.868Z,1.80
2023-04-18T20:55:08.582Z,2.77
2023-04-18T20:57:36.940Z,2.03
2023-04-18T21:00:10.612Z,2.57
2023-04-18T21:02:40.216Z,2.47
2023-04-18T21:05:08.884Z,2.07
2023-04-18T21:07:37.209Z,2.17
2023-04-18T21:10:05.729Z,2.00
2023-04-18T21:12:33.817Z,1.23
2023-04-18T21:15:02.288Z,1.30
2023-04-18T21:17:31.819Z,1.37
2023-04-18T21:19:59.716Z,1.33
2023-04-18T21:22:27.828Z,2.23
2023-04-18T21:24:56.148Z,3.80
2023-04-18T21:27:24.207Z,2.37
2023-04-18T21:29:53.483Z,0.80
2023-04-18T21:32:24.247Z,1.10
2023-04-18T21:34:54.076Z,0.97
2023-04-18T21:37:22.310Z,1.27
2023-04-18T21:39:50.274Z,1.00
2023-04-18T21:42:18.595Z,3.27
2023-04-18T21:44:46.769Z,2.50
2023-04-18T21:47:14.684Z,2.67
2023-04-18T21:49:43.609Z,2.37
2023-04-18T21:52:13.581Z,2.53
2023-04-18T21:54:41.964Z,2.63
2023-04-18T21:57:10.461Z,1.00
2023-04-18T21:59:38.582Z,1.53
2023-04-18T22:02:06.894Z,1.77
2023-04-18T22:04:34.983Z,0.80
2023-04-18T22:07:03.338Z,0.90
2023-04-18T22:09:33.908Z,0.70
2023-04-18T22:12:03.417Z,0.80
2023-04-18T22:14:32.164Z,0.67
2023-04-18T22:17:00.554Z,0.70
2023-04-18T22:19:29.639Z,0.67
2023-04-18T22:21:58.103Z,0.80
2023-04-18T22:24:27.245Z,1.13
2023-04-18T22:26:57.403Z,0.90
2023-04-18T22:29:25.511Z,0.90
2023-04-18T22:31:53.583Z,2.30
2023-04-18T22:34:23.178Z,1.43
2023-04-18T22:36:51.325Z,4.30
2023-04-18T22:39:20.492Z,2.53
2023-04-18T22:41:48.427Z,2.70
2023-04-18T22:44:18.160Z,1.80
2023-04-18T22:46:48.260Z,3.27
2023-04-18T22:49:18.117Z,3.07
2023-04-18T22:51:46.551Z,1.43
2023-04-18T22:54:15.034Z,1.57
2023-04-18T22:56:43.386Z,1.47
2023-04-18T22:59:11.787Z,2.10
2023-04-18T23:01:41.286Z,1.43
2023-04-18T23:04:09.723Z,1.47
2023-04-18T23:06:39.010Z,1.50
2023-04-18T23:09:09.232Z,1.80
2023-04-18T23:11:37.170Z,2.40
2023-04-18T23:14:05.065Z,2.50
2023-04-18T23:16:33.176Z,1.70
2023-04-18T23:19:03.146Z,3.47
2023-04-18T23:21:31.923Z,2.27
2023-04-18T23:24:01.910Z,2.00
2023-04-18T23:26:29.810Z,1.80
2023-04-18T23:28:57.791Z,1.50
2023-04-18T23:31:25.916Z,1.70
2023-04-18T23:33:54.014Z,2.37
2023-04-18T23:36:23.477Z,2.93
2023-04-18T23:38:52.482Z,2.50
2023-04-18T23:41:20.374Z,2.63
2023-04-18T23:43:48.555Z,2.30
2023-04-18T23:46:16.984Z,5.07
2023-04-18T23:48:44.943Z,4.33
2023-04-18T23:51:12.844Z,2.57
2023-04-18T23:53:42.150Z,3.47
2023-04-18T23:56:10.060Z,3.67
2023-04-18T23:58:38.147Z,4.60
